Buffalo, IN (47925)

3:48 PM EDT on July 23, 2014 (GMT -0400)
Bluewater Drive (KINMONTI6) Elev 623 ft | 40.76 °N, 86.75 °W | Change Station

Current weather conditions updated 11 minutes ago

Partly Cloudy
Partly Cloudy
77.9 °F
Feels Like 80 °F
N
6.8
Wind Variable Wind from West

Today is forecast to be Much Cooler than yesterday.

Today
High -- | Low -- °F
--% Chance of Precip.
Yesterday
High -- | Low -- °F
Precip. -- in
6:34 AM 9:11 PM
Waning Crescent, 9% visible
Pressure 30.06 in
Visibility 10.0 miles
Clouds Scattered Clouds 2700 ft
Heat Index 80 °F
Dew Point 77 °F
Humidity 97%
Rainfall 0.58 in
Snow Depth Not available.
UV 8 out of 12
Pollen 6.20 out of 12
Air Quality Not available.
Flu Activity Not available.
METAR KGGP 231935Z AUTO 36010KT 10SM SCT027 23/17 A3006 RMK AO2

More Conditions Fewer Conditions

Pressure 30.06 in
Visibility 10.0 miles
Clouds Scattered Clouds 2700 ft
Heat Index 80 °F
Dew Point 77 °F
Humidity 97%
Rainfall 0.58 in
Snow Depth Not available.
UV 8 out of 12
Pollen 6.20 out of 12
Air Quality Not available.
Flu Activity Not available.
METAR KGGP 231935Z AUTO 36010KT 10SM SCT027 23/17 A3006 RMK AO2

More Conditions Fewer Conditions

10-Day Weather Forecast

Almanac

Astronomy

Jul. 23, 2014 Rise Set
Actual Time 6:34 AM EDT 9:11 PM EDT
Civil Twilight 6:03 AM EDT 9:43 PM EDT
Nautical Twilight 5:23 AM EDT 10:22 PM EDT
Astronomical Twilight 4:38 AM EDT 11:07 PM EDT
Moon 3:53 AM EDT 6:39 PM EDT
Length of Visible Light 15h 40m
Length of Day
14h 36m
Tomorrow will be 1m 46s shorter.
Waning Crescent, 9% of the Moon is Illuminated
Today
Waning Crescent
Jul 26
New
Aug 3
First Quarter
Aug 10
Full
Aug 17
Last Quarter

Today's Extremes

State Highs State Lows

Community

WunderPhotos

Upload Photos

1,736,734 photos uploaded!

Nearby

Snow Depth

Station Depth Elevation
No new snow has been reported.

Earthquake Activity

City Distance Mag. Time & Date
No recent earthquake activity has been reported nearby.
Minimum magnitude displayed is 2.5.

Coastal Water Temperatures

Place Temperature
No Stations Reporting

Nearby Weather Stations

Station Location Temp. Heat Index Dew Point Humidity Wind Precip. Elev Updated Type
Bluewater Drive, Monticello, IN 77.9 °F 80 °F 77 °F 97% West  at  6.8 mph - / hr 623 ft 3:37 PM EDT Normal
Leroy's BarnYard, Kewanna, IN 74.6 °F 76 °F 64 °F 70% NNE  at  6.0 mph 0.00 in / hr 758 ft 3:44 PM EDT Normal
East of Town, North Judson, IN 74.2 °F 76 °F 62 °F 67% North  at  7.0 mph 0.00 in / hr 700 ft 2:45 PM CDT Normal
Windsor Forest, Logansport, IN 76.4 °F 78 °F 68 °F 74% NNE  at  4.6 mph 0.00 in / hr 669 ft 3:48 PM EDT Rapid Fire

Show More Stations Show Fewer Stations